Time;durP1;ratioP1;P1;durP2;ratioP2;P2;SDS_P1;SDS_P2;PMS_P1;PMS_P2;Temp;Humidity;BMP_temperature;BMP_pressure;BME280_temperature;BME280_humidity;BME280_pressure;Samples;Min_cycle;Max_cycle;Signal;HPM_P1;HPM_P2
2023/07/24 00:01:17;;;;;;;5.23;3.93;;;18.10;98.60;;;;;;5017148;28;20457;-69
2023/07/24 00:04:03;;;;;;;5.13;3.60;;;18.10;99.00;;;;;;5014892;28;20837;-69
2023/07/24 00:06:48;;;;;;;8.90;4.63;;;17.90;99.90;;;;;;5017355;28;20648;-71
2023/07/24 00:09:34;;;;;;;5.50;4.10;;;17.90;99.90;;;;;;5017471;28;20531;-72
2023/07/24 00:12:21;;;;;;;5.87;4.23;;;17.90;99.90;;;;;;5021565;28;20468;-69
2023/07/24 00:15:08;;;;;;;5.47;4.30;;;17.90;99.90;;;;;;5014879;28;20950;-69
2023/07/24 00:17:53;;;;;;;5.63;3.97;;;17.90;99.90;;;;;;5015111;28;20453;-70
2023/07/24 00:20:38;;;;;;;6.37;4.50;;;17.70;99.90;;;;;;5015335;28;20950;-71
2023/07/24 00:23:24;;;;;;;5.90;4.57;;;17.80;99.90;;;;;;5019368;28;20553;-70
2023/07/24 00:26:09;;;;;;;5.40;4.10;;;17.80;99.90;;;;;;5022540;28;20460;-69
2023/07/24 00:28:56;;;;;;;6.37;4.30;;;17.80;99.90;;;;;;5022054;28;20446;-69
2023/07/24 00:31:42;;;;;;;8.47;4.60;;;17.80;99.90;;;;;;5021404;28;20476;-69
2023/07/24 00:34:27;;;;;;;6.17;4.00;;;17.80;99.90;;;;;;5026467;28;20556;-69
2023/07/24 00:37:12;;;;;;;5.13;3.80;;;17.80;99.90;;;;;;5020438;28;20479;-69
2023/07/24 00:39:58;;;;;;;6.50;4.20;;;17.70;99.90;;;;;;5019663;28;21010;-70
2023/07/24 00:42:48;;;;;;;5.40;4.07;;;17.80;99.90;;;;;;5025530;28;20439;-69
2023/07/24 00:45:34;;;;;;;6.40;4.10;;;17.70;99.90;;;;;;5021311;28;20441;-70
2023/07/24 00:48:20;;;;;;;6.30;4.53;;;17.70;99.90;;;;;;5021373;28;20451;-70
2023/07/24 00:51:06;;;;;;;6.00;4.30;;;17.50;99.90;;;;;;5020122;28;20952;-70
2023/07/24 00:53:52;;;;;;;7.17;4.30;;;17.50;99.90;;;;;;5023130;28;20437;-69
2023/07/24 00:56:37;;;;;;;5.27;3.20;;;17.50;99.90;;;;;;5018695;28;20531;-69
2023/07/24 00:59:23;;;;;;;6.70;4.10;;;17.50;99.90;;;;;;5021129;28;20596;-71
2023/07/24 01:02:10;;;;;;;7.60;4.30;;;17.40;99.90;;;;;;5018695;28;20461;-70
2023/07/24 01:04:55;;;;;;;5.93;4.27;;;17.50;99.90;;;;;;5022063;28;20515;-69
2023/07/24 01:07:41;;;;;;;6.63;4.40;;;17.40;99.90;;;;;;5019460;28;20457;-70
2023/07/24 01:10:27;;;;;;;5.57;4.10;;;17.30;99.90;;;;;;5019730;28;20669;-70
2023/07/24 01:13:22;;;;;;;5.70;4.53;;;17.30;99.90;;;;;;5020825;28;20464;-70
2023/07/24 01:16:13;;;;;;;5.30;3.90;;;17.20;99.90;;;;;;5021289;28;20494;-70
2023/07/24 01:19:04;;;;;;;5.23;3.93;;;17.20;99.90;;;;;;5023824;28;20452;-69
2023/07/24 01:22:02;;;;;;;4.60;3.00;;;17.20;99.90;;;;;;5019888;28;20568;-70
2023/07/24 01:25:01;;;;;;;5.40;3.63;;;17.30;99.90;;;;;;5023118;28;20821;-70
2023/07/24 01:27:48;;;;;;;10.37;3.80;;;17.30;99.90;;;;;;5017347;28;20461;-69
2023/07/24 01:30:34;;;;;;;5.27;3.83;;;17.40;99.90;;;;;;5024020;28;20500;-70
2023/07/24 01:33:20;;;;;;;6.13;4.47;;;17.30;99.90;;;;;;5022742;28;20457;-69
2023/07/24 01:36:07;;;;;;;6.50;4.53;;;17.30;99.90;;;;;;5023477;28;20604;-69
2023/07/24 01:38:54;;;;;;;5.87;4.20;;;17.30;99.90;;;;;;5021768;28;20441;-70
2023/07/24 01:41:40;;;;;;;7.50;4.43;;;17.30;99.90;;;;;;5019722;28;20473;-69
2023/07/24 01:44:26;;;;;;;6.83;4.57;;;17.20;99.90;;;;;;5023634;28;21285;-69
2023/07/24 01:47:12;;;;;;;6.93;4.50;;;17.20;99.90;;;;;;5021148;28;20465;-72
2023/07/24 01:49:57;;;;;;;7.13;4.67;;;17.40;99.90;;;;;;5020063;28;20449;-71
2023/07/24 01:52:44;;;;;;;6.03;4.13;;;17.20;99.90;;;;;;5016116;28;20485;-69
2023/07/24 01:55:29;;;;;;;6.63;4.60;;;17.20;99.90;;;;;;5020101;28;21013;-70
2023/07/24 01:58:15;;;;;;;6.27;4.83;;;17.20;99.90;;;;;;5020149;28;20449;-70
2023/07/24 02:01:02;;;;;;;8.17;4.70;;;17.20;99.90;;;;;;5019357;28;20444;-69
2023/07/24 02:03:47;;;;;;;5.37;3.73;;;17.30;99.90;;;;;;5020408;28;20447;-69
2023/07/24 02:06:33;;;;;;;5.57;3.67;;;17.30;99.90;;;;;;5015769;28;20479;-70
2023/07/24 02:09:19;;;;;;;7.77;4.40;;;17.40;99.90;;;;;;5020816;28;20440;-69
2023/07/24 02:12:06;;;;;;;8.87;4.47;;;17.20;99.90;;;;;;5017772;28;20495;-69
2023/07/24 02:14:51;;;;;;;6.33;4.30;;;17.20;99.90;;;;;;5021733;28;20457;-70
2023/07/24 02:17:38;;;;;;;6.77;4.50;;;17.30;99.90;;;;;;5022150;28;20548;-69
2023/07/24 02:20:24;;;;;;;5.17;3.67;;;17.20;99.90;;;;;;5019345;28;20441;-69
2023/07/24 02:23:10;;;;;;;5.50;4.20;;;17.10;99.90;;;;;;5018303;28;20435;-70
2023/07/24 02:25:55;;;;;;;14.50;5.00;;;17.10;99.90;;;;;;5024018;28;20448;-69
2023/07/24 02:28:41;;;;;;;6.60;4.47;;;16.90;99.90;;;;;;5019698;28;20500;-70
2023/07/24 02:31:26;;;;;;;8.73;6.33;;;16.70;99.90;;;;;;5013327;28;20446;-69
2023/07/24 02:34:13;;;;;;;6.47;5.00;;;16.50;99.90;;;;;;5024755;28;20597;-70
2023/07/24 02:36:58;;;;;;;10.17;4.53;;;16.50;99.90;;;;;;5018412;28;20475;-69
2023/07/24 02:39:44;;;;;;;6.80;4.40;;;16.50;99.90;;;;;;5022444;28;20423;-70
2023/07/24 02:42:30;;;;;;;5.63;4.23;;;16.50;99.90;;;;;;5023563;28;20534;-70
2023/07/24 02:45:15;;;;;;;6.33;5.00;;;16.60;99.90;;;;;;5020596;28;20445;-69
2023/07/24 02:48:01;;;;;;;7.27;4.90;;;16.60;99.90;;;;;;5022952;28;20782;-70
2023/07/24 02:50:49;;;;;;;7.30;4.30;;;16.80;99.90;;;;;;5021246;28;20448;-70
2023/07/24 02:53:35;;;;;;;6.10;4.40;;;17.00;99.90;;;;;;5017943;28;20457;-69
2023/07/24 02:56:21;;;;;;;12.67;4.77;;;17.00;99.90;;;;;;5022555;28;20440;-69
2023/07/24 02:59:06;;;;;;;7.83;4.60;;;17.00;99.90;;;;;;5023122;28;20429;-68
2023/07/24 03:01:51;;;;;;;10.20;5.27;;;16.90;99.90;;;;;;5021954;28;20480;-69
2023/07/24 03:04:37;;;;;;;8.00;4.67;;;17.00;99.90;;;;;;5030950;28;20445;-69
2023/07/24 03:07:24;;;;;;;7.23;4.00;;;17.10;99.90;;;;;;5026898;28;20466;-69
2023/07/24 03:10:10;;;;;;;8.60;3.87;;;17.10;99.90;;;;;;5021024;28;20574;-69
2023/07/24 03:12:55;;;;;;;7.10;5.07;;;17.00;99.90;;;;;;5022756;28;21064;-69
2023/07/24 03:15:41;;;;;;;6.13;3.93;;;17.00;99.90;;;;;;5022885;28;20445;-70
2023/07/24 03:18:26;;;;;;;7.83;5.07;;;17.00;99.90;;;;;;5024468;28;20436;-69
2023/07/24 03:21:12;;;;;;;10.60;5.13;;;17.00;99.90;;;;;;5024254;28;20433;-68
2023/07/24 03:23:58;;;;;;;7.13;4.80;;;17.00;99.90;;;;;;5024301;28;20464;-69
2023/07/24 03:26:44;;;;;;;4.87;3.80;;;17.00;99.90;;;;;;5023176;28;20487;-68
2023/07/24 03:29:29;;;;;;;7.37;5.10;;;17.00;99.90;;;;;;5023672;28;20492;-69
2023/07/24 03:32:15;;;;;;;6.40;4.67;;;17.00;99.90;;;;;;5025639;28;20443;-68
2023/07/24 03:35:00;;;;;;;6.50;4.90;;;16.90;99.90;;;;;;5022322;28;20507;-69
2023/07/24 03:37:46;;;;;;;5.90;4.50;;;17.00;99.90;;;;;;5024766;28;20476;-70
2023/07/24 03:40:32;;;;;;;7.33;5.20;;;17.00;99.90;;;;;;5024247;28;20440;-69
2023/07/24 03:43:18;;;;;;;7.07;4.33;;;16.90;99.90;;;;;;5018677;28;20950;-69
2023/07/24 03:46:04;;;;;;;7.20;4.50;;;17.00;99.90;;;;;;5022616;28;20449;-68
2023/07/24 03:48:50;;;;;;;6.57;4.60;;;17.20;99.90;;;;;;5022512;28;20454;-69
2023/07/24 03:51:35;;;;;;;6.60;4.50;;;17.30;99.90;;;;;;5020575;28;20492;-69
2023/07/24 03:54:21;;;;;;;5.63;4.50;;;17.30;99.90;;;;;;5025241;28;20539;-69
2023/07/24 03:57:08;;;;;;;6.00;4.60;;;17.20;99.90;;;;;;5026416;28;21012;-69
2023/07/24 03:59:53;;;;;;;10.73;4.97;;;17.20;99.90;;;;;;5023265;28;20473;-69
2023/07/24 04:02:39;;;;;;;5.90;4.60;;;17.10;99.90;;;;;;5021636;28;20452;-71
2023/07/24 04:05:26;;;;;;;7.80;5.03;;;17.20;99.90;;;;;;5019010;28;20457;-69
2023/07/24 04:08:11;;;;;;;5.60;4.40;;;17.20;99.90;;;;;;5022296;28;20437;-69
2023/07/24 04:10:57;;;;;;;6.63;4.60;;;17.40;99.90;;;;;;5022273;28;20449;-69
2023/07/24 04:13:44;;;;;;;6.17;4.40;;;17.50;99.90;;;;;;5024028;28;20441;-70
2023/07/24 04:16:29;;;;;;;7.63;4.40;;;17.60;99.90;;;;;;5027792;28;21194;-70
2023/07/24 04:19:15;;;;;;;5.80;4.60;;;17.70;99.90;;;;;;5022949;28;20487;-69
2023/07/24 04:22:00;;;;;;;4.87;3.63;;;17.70;99.90;;;;;;5028050;28;20469;-70
2023/07/24 04:24:46;;;;;;;7.40;4.63;;;17.80;99.90;;;;;;5023063;28;20457;-69
2023/07/24 04:27:31;;;;;;;6.17;4.77;;;17.80;99.90;;;;;;5023397;28;20479;-68
2023/07/24 04:30:18;;;;;;;6.27;4.37;;;17.90;99.90;;;;;;5016274;28;21052;-69
2023/07/24 04:33:04;;;;;;;6.13;4.20;;;18.00;99.90;;;;;;5022722;28;20480;-70
2023/07/24 04:35:49;;;;;;;6.60;4.23;;;17.90;99.90;;;;;;5021456;28;20436;-70
2023/07/24 04:38:35;;;;;;;6.40;4.57;;;17.90;99.90;;;;;;5022286;28;20847;-69
2023/07/24 04:41:20;;;;;;;7.60;5.37;;;17.90;99.90;;;;;;5021628;28;20460;-70
2023/07/24 04:44:06;;;;;;;6.07;4.57;;;17.90;99.90;;;;;;5025744;28;20531;-69
2023/07/24 04:46:53;;;;;;;8.97;5.03;;;18.00;99.90;;;;;;5015532;28;20444;-70
2023/07/24 04:49:38;;;;;;;5.23;4.03;;;18.10;99.90;;;;;;5025397;28;20473;-70
2023/07/24 04:52:24;;;;;;;12.20;5.93;;;18.30;99.90;;;;;;5024034;28;20788;-70
2023/07/24 04:55:09;;;;;;;8.80;4.03;;;18.30;99.90;;;;;;5021146;28;20724;-69
2023/07/24 04:57:55;;;;;;;7.10;5.03;;;18.30;99.90;;;;;;5027159;28;20488;-69
2023/07/24 05:00:40;;;;;;;7.20;4.40;;;18.30;99.90;;;;;;5019002;28;20449;-70
2023/07/24 05:03:27;;;;;;;7.90;3.97;;;18.40;99.90;;;;;;5026615;28;20460;-69
2023/07/24 05:06:13;;;;;;;9.23;5.67;;;18.50;99.90;;;;;;5018967;28;20488;-70
2023/07/24 05:08:58;;;;;;;6.77;4.53;;;18.50;99.90;;;;;;5018775;28;20530;-69
2023/07/24 05:11:44;;;;;;;6.60;4.37;;;18.60;99.90;;;;;;5021098;28;20468;-70
2023/07/24 05:14:30;;;;;;;5.70;4.07;;;18.60;99.90;;;;;;5025499;28;20523;-69
2023/07/24 05:17:15;;;;;;;6.40;4.90;;;18.60;99.90;;;;;;5024188;28;20472;-69
2023/07/24 05:20:03;;;;;;;6.70;4.80;;;18.60;99.90;;;;;;5021607;28;20535;-70
2023/07/24 05:22:48;;;;;;;7.47;4.80;;;18.70;99.90;;;;;;5025745;28;20475;-68
2023/07/24 05:25:33;;;;;;;7.40;4.43;;;18.70;99.90;;;;;;5020295;28;21037;-70
2023/07/24 05:28:19;;;;;;;8.90;5.10;;;18.70;99.90;;;;;;5026716;28;20444;-70
2023/07/24 05:31:05;;;;;;;9.53;4.90;;;18.70;99.90;;;;;;5024410;28;20810;-69
2023/07/24 05:33:50;;;;;;;9.20;5.47;;;18.70;99.90;;;;;;5025056;28;20607;-69
2023/07/24 05:36:37;;;;;;;8.20;5.63;;;18.70;99.90;;;;;;5021743;28;20606;-70
2023/07/24 05:39:23;;;;;;;7.10;4.90;;;18.70;99.90;;;;;;5020845;28;20958;-69
2023/07/24 05:42:10;;;;;;;13.70;5.53;;;18.60;99.90;;;;;;5020604;28;20508;-69
2023/07/24 05:44:55;;;;;;;12.40;5.40;;;18.60;99.90;;;;;;5032522;28;20492;-69
2023/07/24 05:47:41;;;;;;;9.83;4.37;;;18.60;99.90;;;;;;5029438;28;20441;-70
2023/07/24 05:50:26;;;;;;;7.50;4.73;;;18.70;99.90;;;;;;5026743;28;20449;-70
2023/07/24 05:53:13;;;;;;;8.27;5.40;;;18.80;99.90;;;;;;5027766;28;20567;-69
2023/07/24 05:55:59;;;;;;;8.20;5.20;;;18.90;99.90;;;;;;5027586;28;20576;-69
2023/07/24 05:58:44;;;;;;;8.70;5.20;;;19.00;99.90;;;;;;5025327;28;20467;-70
2023/07/24 06:01:30;;;;;;;11.03;5.60;;;19.10;99.90;;;;;;5025653;28;20468;-70
2023/07/24 06:04:15;;;;;;;11.10;4.77;;;19.20;99.90;;;;;;5027453;28;20513;-69
2023/07/24 06:07:01;;;;;;;10.73;5.40;;;19.20;99.90;;;;;;5023347;28;20805;-70
2023/07/24 06:09:48;;;;;;;7.07;5.43;;;19.30;99.90;;;;;;5025552;28;20444;-70
2023/07/24 06:12:33;;;;;;;7.63;4.90;;;19.40;99.90;;;;;;5028158;28;20465;-69
2023/07/24 06:15:19;;;;;;;8.30;5.80;;;19.40;99.90;;;;;;5027059;28;20456;-69
2023/07/24 06:18:04;;;;;;;9.30;5.57;;;19.40;99.90;;;;;;5028021;28;20538;-70
2023/07/24 06:20:53;;;;;;;9.90;5.43;;;19.50;99.90;;;;;;5025266;28;20456;-69
2023/07/24 06:23:39;;;;;;;7.13;4.87;;;19.50;99.90;;;;;;5024724;28;20487;-69
2023/07/24 06:26:26;;;;;;;6.73;5.10;;;19.50;99.90;;;;;;5023700;28;20448;-70
2023/07/24 06:29:11;;;;;;;7.70;5.03;;;19.60;99.90;;;;;;5025288;28;20411;-70
2023/07/24 06:31:57;;;;;;;10.30;5.73;;;19.60;99.90;;;;;;5023426;28;20468;-70
2023/07/24 06:34:42;;;;;;;7.93;5.33;;;19.70;99.90;;;;;;5026196;28;20583;-69
2023/07/24 06:37:28;;;;;;;8.47;4.73;;;19.80;99.90;;;;;;5023256;28;20461;-69
2023/07/24 06:40:14;;;;;;;8.43;6.17;;;19.80;99.90;;;;;;5029776;28;20456;-69
2023/07/24 06:43:00;;;;;;;7.03;4.80;;;19.90;99.90;;;;;;5027138;28;21121;-69
2023/07/24 06:45:46;;;;;;;10.10;5.90;;;20.00;99.90;;;;;;5021417;28;22424;-69
2023/07/24 06:48:32;;;;;;;7.87;5.70;;;20.10;99.90;;;;;;5028692;28;20444;-69
2023/07/24 06:51:17;;;;;;;7.57;5.30;;;20.20;99.90;;;;;;5018615;28;20483;-69
2023/07/24 06:54:03;;;;;;;9.00;6.07;;;20.30;99.90;;;;;;5021984;28;23076;-70
2023/07/24 06:56:48;;;;;;;8.73;5.90;;;20.40;99.90;;;;;;5024181;28;20452;-69
2023/07/24 06:59:35;;;;;;;7.70;5.97;;;20.50;99.90;;;;;;5020015;28;20483;-70
2023/07/24 07:02:21;;;;;;;8.07;5.53;;;20.60;99.90;;;;;;5024370;28;20450;-69
2023/07/24 07:05:06;;;;;;;9.00;7.00;;;20.60;99.90;;;;;;5017983;28;20441;-69
2023/07/24 07:07:52;;;;;;;7.23;5.53;;;20.70;99.90;;;;;;5024125;28;20444;-69
2023/07/24 07:10:37;;;;;;;11.47;6.80;;;20.80;99.90;;;;;;5025399;28;20596;-69
2023/07/24 07:13:23;;;;;;;11.87;6.17;;;20.80;99.90;;;;;;5027145;28;20480;-69
2023/07/24 07:16:10;;;;;;;12.90;6.33;;;20.80;99.90;;;;;;5024687;28;20524;-70
2023/07/24 07:18:55;;;;;;;8.67;5.60;;;20.80;99.90;;;;;;5022241;28;22031;-69
2023/07/24 07:21:41;;;;;;;7.30;5.27;;;21.00;99.90;;;;;;5025188;28;20467;-70
2023/07/24 07:24:26;;;;;;;8.87;6.93;;;21.10;99.90;;;;;;5022721;28;20437;-69
2023/07/24 07:27:12;;;;;;;10.00;6.73;;;21.20;99.90;;;;;;5015429;28;20445;-68
2023/07/24 07:29:58;;;;;;;12.50;7.67;;;21.40;99.90;;;;;;5019497;28;20977;-69
2023/07/24 07:32:45;;;;;;;9.63;7.33;;;21.60;99.90;;;;;;5017312;28;20468;-70
2023/07/24 07:35:31;;;;;;;12.40;7.30;;;21.80;97.10;;;;;;5027381;28;20436;-69
2023/07/24 07:38:17;;;;;;;12.30;7.67;;;22.00;94.80;;;;;;5022226;28;20467;-69
2023/07/24 07:41:05;;;;;;;14.83;7.63;;;22.10;95.90;;;;;;5022810;28;20475;-69
2023/07/24 07:43:50;;;;;;;14.53;7.70;;;22.30;93.30;;;;;;5026830;28;20520;-69
2023/07/24 07:46:36;;;;;;;13.00;7.70;;;22.40;92.30;;;;;;5022309;28;20497;-69
2023/07/24 07:49:23;;;;;;;12.00;7.33;;;22.40;92.10;;;;;;5013966;28;21001;-70
2023/07/24 07:52:08;;;;;;;12.60;8.20;;;22.50;90.60;;;;;;5020783;28;20663;-70
2023/07/24 07:54:54;;;;;;;10.40;7.27;;;22.40;90.40;;;;;;5022255;28;20865;-69
2023/07/24 07:57:39;;;;;;;25.87;8.77;;;22.50;91.50;;;;;;5027617;28;20464;-69
2023/07/24 08:00:25;;;;;;;12.50;8.37;;;22.40;89.30;;;;;;5019357;28;20532;-68
2023/07/24 08:03:10;;;;;;;13.30;7.50;;;22.40;88.80;;;;;;5018335;28;20464;-69
2023/07/24 08:05:59;;;;;;;11.13;8.17;;;22.40;90.20;;;;;;5017062;28;20438;-69
2023/07/24 08:08:44;;;;;;;12.50;8.07;;;22.50;90.00;;;;;;5021007;28;20441;-69
2023/07/24 08:11:30;;;;;;;10.50;7.20;;;22.60;90.60;;;;;;5019732;28;20612;-69
2023/07/24 08:14:15;;;;;;;10.43;8.23;;;22.60;88.90;;;;;;5016455;28;20437;-70
2023/07/24 08:17:01;;;;;;;16.97;7.80;;;22.60;88.90;;;;;;5021388;28;20448;-69
2023/07/24 08:19:46;;;;;;;11.13;8.13;;;22.50;88.40;;;;;;5017458;28;20551;-69
2023/07/24 08:22:33;;;;;;;9.23;6.83;;;22.50;89.70;;;;;;5027767;28;20951;-69
2023/07/24 08:25:19;;;;;;;12.97;8.43;;;22.40;89.10;;;;;;5018894;28;20452;-69
2023/07/24 08:28:05;;;;;;;11.13;7.90;;;22.40;90.10;;;;;;5021753;28;20457;-69
2023/07/24 08:30:58;;;;;;;13.60;8.00;;;22.40;91.60;;;;;;5014199;28;20444;-70
2023/07/24 08:33:43;;;;;;;9.87;7.73;;;22.40;91.60;;;;;;5029468;28;20811;-69
2023/07/24 08:36:29;;;;;;;9.73;6.83;;;22.30;90.60;;;;;;5014859;28;20457;-68
2023/07/24 08:39:16;;;;;;;18.40;8.60;;;22.30;90.90;;;;;;5021345;28;20606;-69
2023/07/24 08:42:09;;;;;;;13.20;7.87;;;22.30;91.70;;;;;;5022656;28;20855;-68
2023/07/24 08:44:56;;;;;;;12.90;8.30;;;22.40;91.40;;;;;;5020157;28;20444;-68
2023/07/24 08:47:43;;;;;;;12.53;7.13;;;22.50;91.50;;;;;;5023486;28;22548;-68
2023/07/24 08:50:30;;;;;;;12.10;7.33;;;22.50;91.50;;;;;;5025270;28;20533;-68
2023/07/24 08:53:16;;;;;;;9.37;6.77;;;22.60;92.00;;;;;;5019607;28;20476;-68
2023/07/24 08:56:03;;;;;;;12.40;7.77;;;22.70;91.00;;;;;;5023436;28;20520;-69
2023/07/24 08:58:49;;;;;;;12.90;6.90;;;22.80;91.30;;;;;;5021019;28;20489;-68
2023/07/24 09:01:34;;;;;;;8.00;6.00;;;22.90;90.80;;;;;;5024002;28;20556;-69
2023/07/24 09:04:20;;;;;;;7.23;5.83;;;23.00;90.10;;;;;;5017804;28;20949;-69
2023/07/24 09:07:07;;;;;;;7.97;5.90;;;23.10;90.20;;;;;;5020208;28;20573;-69
2023/07/24 09:09:52;;;;;;;9.00;6.00;;;23.20;90.20;;;;;;5020724;28;20449;-69
2023/07/24 09:12:42;;;;;;;9.50;6.77;;;23.30;87.90;;;;;;5021469;28;20469;-69
2023/07/24 09:15:27;;;;;;;11.30;7.50;;;23.40;86.50;;;;;;5022572;28;20465;-69
2023/07/24 09:18:13;;;;;;;9.30;7.07;;;23.40;87.60;;;;;;5026905;28;20471;-69
2023/07/24 09:20:59;;;;;;;9.50;7.13;;;23.50;87.00;;;;;;5018805;28;20443;-69
2023/07/24 09:23:44;;;;;;;11.10;8.20;;;23.50;85.80;;;;;;5023069;28;21070;-69
2023/07/24 09:26:29;;;;;;;11.50;8.00;;;23.40;86.40;;;;;;5024620;28;20488;-69
2023/07/24 09:29:17;;;;;;;12.53;8.53;;;23.30;86.60;;;;;;5023475;28;20500;-69
2023/07/24 09:32:03;;;;;;;11.00;7.37;;;23.20;86.50;;;;;;5020448;28;20469;-69
2023/07/24 09:34:50;;;;;;;9.73;7.40;;;23.10;87.00;;;;;;5027823;28;20576;-69
2023/07/24 09:37:36;;;;;;;10.00;7.67;;;23.10;87.20;;;;;;5025449;28;20531;-69
2023/07/24 09:40:21;;;;;;;9.93;6.83;;;23.10;87.30;;;;;;5025350;28;20456;-69
2023/07/24 09:43:20;;;;;;;10.93;7.13;;;23.00;87.00;;;;;;5025616;28;20596;-69
2023/07/24 09:46:08;;;;;;;11.30;6.00;;;22.90;87.80;;;;;;5028204;28;20441;-69
2023/07/24 09:48:54;;;;;;;11.20;6.70;;;22.80;89.30;;;;;;5028876;28;20436;-69
2023/07/24 09:51:40;;;;;;;15.10;6.37;;;22.80;89.90;;;;;;5023784;28;20488;-69
2023/07/24 09:54:31;;;;;;;11.83;7.93;;;22.80;88.90;;;;;;5018442;28;20453;-69
2023/07/24 09:57:18;;;;;;;15.93;6.40;;;22.70;90.00;;;;;;5022383;28;20948;-69
2023/07/24 10:00:04;;;;;;;9.70;7.40;;;22.70;90.10;;;;;;5021005;28;20989;-69
2023/07/24 10:02:52;;;;;;;11.20;7.20;;;22.70;90.50;;;;;;5020363;28;20546;-70
2023/07/24 10:05:37;;;;;;;9.00;6.73;;;22.60;90.50;;;;;;5022010;28;20826;-69
2023/07/24 10:08:23;;;;;;;12.33;6.40;;;22.50;91.50;;;;;;5024149;28;20790;-69
2023/07/24 10:11:09;;;;;;;14.77;7.80;;;22.50;92.20;;;;;;5019612;28;20945;-69
2023/07/24 10:13:55;;;;;;;12.67;7.27;;;22.50;93.80;;;;;;5023301;28;20957;-70
2023/07/24 10:16:41;;;;;;;9.80;7.20;;;22.50;93.20;;;;;;5014940;28;20457;-70
2023/07/24 10:19:37;;;;;;;10.60;7.50;;;22.40;93.00;;;;;;5025394;28;20484;-70
2023/07/24 10:22:23;;;;;;;8.80;6.27;;;22.40;93.40;;;;;;5027065;28;20688;-69
2023/07/24 10:25:09;;;;;;;10.90;7.03;;;22.40;93.10;;;;;;5022196;28;20452;-71
2023/07/24 10:27:54;;;;;;;15.17;7.33;;;22.50;93.20;;;;;;5024416;28;20416;-70
2023/07/24 10:30:41;;;;;;;16.53;7.07;;;22.60;93.00;;;;;;5016106;28;20559;-69
2023/07/24 10:33:31;;;;;;;10.93;7.50;;;22.50;92.60;;;;;;5021099;28;20476;-68
2023/07/24 10:36:20;;;;;;;14.87;7.20;;;22.60;92.40;;;;;;5024513;28;20447;-69
2023/07/24 10:39:15;;;;;;;9.83;7.10;;;22.50;92.50;;;;;;5026372;28;20954;-70
2023/07/24 10:42:06;;;;;;;15.60;9.47;;;22.60;92.90;;;;;;5022604;28;20587;-69
2023/07/24 10:45:04;;;;;;;16.00;7.67;;;22.60;92.70;;;;;;5020063;28;20419;-69
2023/07/24 10:47:51;;;;;;;14.13;7.60;;;22.70;92.50;;;;;;5024087;28;20460;-71
2023/07/24 10:50:40;;;;;;;12.57;8.60;;;22.70;92.50;;;;;;5027552;28;20496;-70
2023/07/24 10:53:28;;;;;;;11.30;7.07;;;22.80;92.40;;;;;;5039776;28;20967;-70
2023/07/24 10:56:13;;;;;;;10.77;7.40;;;22.90;91.80;;;;;;5023776;28;20587;-69
2023/07/24 10:59:03;;;;;;;11.40;6.40;;;23.00;91.80;;;;;;5027909;28;20468;-70
2023/07/24 11:01:49;;;;;;;9.33;6.10;;;23.10;90.90;;;;;;5027926;28;20469;-70
2023/07/24 11:04:34;;;;;;;8.63;6.37;;;23.10;91.30;;;;;;5022986;28;20448;-70
2023/07/24 11:07:21;;;;;;;21.70;7.00;;;23.10;90.80;;;;;;5022715;28;20464;-69
2023/07/24 11:10:17;;;;;;;10.37;6.70;;;23.10;90.40;;;;;;5025261;28;20440;-70
2023/07/24 11:13:02;;;;;;;17.43;8.13;;;23.10;90.60;;;;;;5024769;28;20536;-69
2023/07/24 11:15:49;;;;;;;11.10;6.83;;;23.20;91.50;;;;;;5023601;28;20448;-69
2023/07/24 11:18:44;;;;;;;9.20;6.57;;;23.20;89.60;;;;;;5026104;28;20441;-69
2023/07/24 11:21:30;;;;;;;8.80;6.13;;;23.30;86.70;;;;;;5023314;28;20431;-71
2023/07/24 11:24:18;;;;;;;7.90;6.27;;;23.30;88.50;;;;;;5025178;28;20445;-70
2023/07/24 11:27:13;;;;;;;14.77;6.57;;;23.50;86.70;;;;;;5022754;28;20445;-70
2023/07/24 11:29:59;;;;;;;8.27;5.90;;;23.50;86.00;;;;;;5020627;28;20818;-69
2023/07/24 11:32:44;;;;;;;9.80;7.60;;;23.50;87.70;;;;;;5021841;28;20472;-69
2023/07/24 11:35:30;;;;;;;9.33;6.33;;;23.60;89.40;;;;;;5018403;28;20528;-70
2023/07/24 11:38:17;;;;;;;11.67;5.93;;;23.50;88.20;;;;;;5021173;28;20448;-69
2023/07/24 11:41:03;;;;;;;9.90;6.73;;;23.60;88.60;;;;;;5021653;28;20461;-68
2023/07/24 11:43:51;;;;;;;11.20;6.40;;;23.70;87.00;;;;;;5021393;28;20853;-69
2023/07/24 11:46:36;;;;;;;8.23;6.07;;;23.80;89.00;;;;;;5023230;28;20576;-71
2023/07/24 11:49:22;;;;;;;11.20;6.80;;;23.80;87.00;;;;;;5021340;28;20440;-70
2023/07/24 11:52:08;;;;;;;8.87;6.13;;;23.90;87.10;;;;;;5019335;28;20484;-70
2023/07/24 11:55:00;;;;;;;9.20;6.40;;;23.90;87.10;;;;;;5026298;28;20460;-71
2023/07/24 11:57:56;;;;;;;10.60;6.93;;;23.80;88.20;;;;;;5025014;28;20558;-72
2023/07/24 12:00:43;;;;;;;9.40;7.00;;;23.90;88.90;;;;;;5018282;28;20477;-71
2023/07/24 12:03:30;;;;;;;11.10;6.90;;;23.80;90.00;;;;;;5024879;28;20916;-70
2023/07/24 12:06:16;;;;;;;10.00;6.20;;;23.60;90.10;;;;;;5022063;28;20453;-70
2023/07/24 12:09:04;;;;;;;11.60;7.20;;;23.40;91.20;;;;;;5022763;28;20954;-70
2023/07/24 12:11:49;;;;;;;11.67;7.93;;;23.40;92.00;;;;;;5022680;28;20532;-70
2023/07/24 12:14:35;;;;;;;11.50;7.10;;;23.40;91.50;;;;;;5024104;28;20900;-70
2023/07/24 12:17:22;;;;;;;8.07;6.20;;;23.50;92.10;;;;;;5023098;28;20453;-71
2023/07/24 12:20:10;;;;;;;9.53;7.47;;;23.70;92.00;;;;;;5019063;28;20535;-71
2023/07/24 12:22:55;;;;;;;12.33;7.07;;;23.90;91.10;;;;;;5021514;28;20477;-71
2023/07/24 12:25:41;;;;;;;12.63;6.90;;;24.00;91.00;;;;;;5021719;28;20797;-72
2023/07/24 12:28:26;;;;;;;9.83;7.07;;;23.90;90.70;;;;;;5022925;28;20445;-72
2023/07/24 12:31:12;;;;;;;10.03;7.83;;;23.80;90.60;;;;;;5019291;28;20445;-72
2023/07/24 12:33:59;;;;;;;10.10;7.33;;;23.80;90.80;;;;;;5023096;28;20938;-72
2023/07/24 12:36:46;;;;;;;10.50;6.87;;;23.70;91.30;;;;;;5021483;28;20500;-72
2023/07/24 12:39:31;;;;;;;8.53;6.83;;;23.60;92.00;;;;;;5023402;28;20476;-72
2023/07/24 12:42:17;;;;;;;10.27;7.80;;;23.50;91.50;;;;;;5018761;28;20488;-72
2023/07/24 12:45:03;;;;;;;10.67;6.30;;;23.50;92.90;;;;;;5021492;28;21353;-72
2023/07/24 12:47:48;;;;;;;9.87;6.80;;;23.70;92.40;;;;;;5020112;28;20449;-72
2023/07/24 12:50:35;;;;;;;11.00;8.07;;;24.10;91.70;;;;;;5019583;28;20431;-72
2023/07/24 12:53:21;;;;;;;13.27;6.73;;;24.20;89.60;;;;;;5019165;28;20518;-72
2023/07/24 12:56:06;;;;;;;31.67;22.03;;;24.00;90.20;;;;;;5011833;28;20453;-72
2023/07/24 12:58:52;;;;;;;12.70;7.40;;;24.10;90.80;;;;;;5022938;28;20440;-72
2023/07/24 13:01:37;;;;;;;12.67;8.07;;;24.10;90.90;;;;;;5016549;28;20999;-73
2023/07/24 13:04:23;;;;;;;12.23;8.43;;;24.00;90.70;;;;;;5024019;28;20527;-72
2023/07/24 13:07:10;;;;;;;11.47;7.33;;;24.10;91.50;;;;;;5023385;28;20445;-71
2023/07/24 13:09:55;;;;;;;10.87;7.07;;;24.10;91.40;;;;;;5026785;28;20461;-72
2023/07/24 13:12:41;;;;;;;11.37;7.23;;;24.10;91.30;;;;;;5016724;28;20463;-71
2023/07/24 13:15:27;;;;;;;13.50;7.10;;;24.20;90.60;;;;;;5020025;28;21122;-72
2023/07/24 13:18:13;;;;;;;11.57;8.20;;;24.10;90.40;;;;;;5018963;28;20819;-72
2023/07/24 13:20:59;;;;;;;10.70;7.57;;;24.00;90.90;;;;;;5018967;28;20474;-73
2023/07/24 13:23:46;;;;;;;11.00;7.10;;;24.00;91.30;;;;;;5017830;28;20536;-72
2023/07/24 13:26:31;;;;;;;10.37;7.60;;;23.90;89.40;;;;;;5009550;28;20524;-72
2023/07/24 13:29:17;;;;;;;14.47;10.27;;;23.90;89.40;;;;;;5018183;28;20438;-72
2023/07/24 13:32:03;;;;;;;14.17;7.50;;;24.20;90.20;;;;;;5015411;28;20468;-73
2023/07/24 13:34:48;;;;;;;11.80;7.27;;;24.60;85.60;;;;;;5015832;28;20442;-74
2023/07/24 13:37:33;;;;;;;15.03;8.00;;;24.90;77.70;;;;;;5017882;28;20444;-72
2023/07/24 13:40:21;;;;;;;19.40;7.60;;;25.00;78.70;;;;;;5020208;28;20472;-73
2023/07/24 13:43:06;;;;;;;14.00;7.83;;;24.90;78.30;;;;;;5019975;28;20472;-72
2023/07/24 13:45:53;;;;;;;12.07;7.67;;;24.90;78.60;;;;;;5020753;28;20445;-71
2023/07/24 13:48:38;;;;;;;11.60;7.63;;;25.00;77.60;;;;;;5018003;28;20450;-72
2023/07/24 13:51:24;;;;;;;13.80;9.40;;;25.00;76.10;;;;;;5024368;28;21169;-71
2023/07/24 13:54:09;;;;;;;13.47;7.77;;;24.90;73.80;;;;;;5023115;28;20452;-70
2023/07/24 13:56:56;;;;;;;9.73;6.90;;;24.80;72.70;;;;;;5014759;28;20449;-71
2023/07/24 13:59:41;;;;;;;9.07;7.30;;;24.80;72.80;;;;;;5024707;28;20480;-72
2023/07/24 14:02:27;;;;;;;13.23;7.37;;;24.90;70.50;;;;;;5022703;28;20456;-72
2023/07/24 14:05:12;;;;;;;9.63;6.77;;;24.80;72.80;;;;;;5030495;28;21088;-72
2023/07/24 14:07:58;;;;;;;9.60;7.57;;;24.60;72.90;;;;;;5019444;28;21066;-71
2023/07/24 14:10:43;;;;;;;9.77;6.57;;;24.30;74.00;;;;;;5028750;28;20495;-71
2023/07/24 14:13:30;;;;;;;10.40;6.57;;;24.00;74.80;;;;;;5027566;28;20463;-71
2023/07/24 14:16:16;;;;;;;11.20;7.30;;;23.90;75.30;;;;;;5027636;28;20436;-71
2023/07/24 14:19:01;;;;;;;14.37;6.90;;;23.80;77.00;;;;;;5031473;28;20460;-72
2023/07/24 14:21:47;;;;;;;15.10;8.87;;;23.70;81.70;;;;;;5018958;28;20524;-72